sensor_id;sensor_type;location;lat;lon;timestamp;P1;durP1;ratioP1;P2;durP2;ratioP2
5912;SDS011;2982;42.684;23.356;2024-02-16T00:01:59;37.63;;;16.80;;
5912;SDS011;2982;42.684;23.356;2024-02-16T00:04:25;29.83;;;16.23;;
5912;SDS011;2982;42.684;23.356;2024-02-16T00:06:50;27.83;;;16.37;;
5912;SDS011;2982;42.684;23.356;2024-02-16T00:09:15;33.20;;;16.13;;
5912;SDS011;2982;42.684;23.356;2024-02-16T00:11:41;27.10;;;15.43;;
5912;SDS011;2982;42.684;23.356;2024-02-16T00:14:06;31.00;;;17.17;;
5912;SDS011;2982;42.684;23.356;2024-02-16T00:16:31;32.20;;;15.70;;
5912;SDS011;2982;42.684;23.356;2024-02-16T00:18:57;30.57;;;14.77;;
5912;SDS011;2982;42.684;23.356;2024-02-16T00:21:22;25.17;;;14.90;;
5912;SDS011;2982;42.684;23.356;2024-02-16T00:23:47;25.90;;;15.20;;
5912;SDS011;2982;42.684;23.356;2024-02-16T00:26:13;26.60;;;15.77;;
5912;SDS011;2982;42.684;23.356;2024-02-16T00:28:38;24.93;;;14.73;;
5912;SDS011;2982;42.684;23.356;2024-02-16T00:31:03;27.37;;;15.10;;
5912;SDS011;2982;42.684;23.356;2024-02-16T00:33:29;25.70;;;13.53;;
5912;SDS011;2982;42.684;23.356;2024-02-16T00:35:54;26.77;;;13.20;;
5912;SDS011;2982;42.684;23.356;2024-02-16T00:38:19;23.03;;;12.43;;
5912;SDS011;2982;42.684;23.356;2024-02-16T00:40:45;22.13;;;12.47;;
5912;SDS011;2982;42.684;23.356;2024-02-16T00:43:10;25.53;;;11.73;;
5912;SDS011;2982;42.684;23.356;2024-02-16T00:45:36;21.33;;;11.30;;
5912;SDS011;2982;42.684;23.356;2024-02-16T00:48:02;20.63;;;12.13;;
5912;SDS011;2982;42.684;23.356;2024-02-16T00:50:27;22.73;;;11.87;;
5912;SDS011;2982;42.684;23.356;2024-02-16T00:52:53;22.63;;;11.70;;
5912;SDS011;2982;42.684;23.356;2024-02-16T00:55:18;15.13;;;10.13;;
5912;SDS011;2982;42.684;23.356;2024-02-16T00:57:43;13.80;;;10.13;;
5912;SDS011;2982;42.684;23.356;2024-02-16T01:00:09;16.73;;;9.23;;
5912;SDS011;2982;42.684;23.356;2024-02-16T01:02:35;19.03;;;10.83;;
5912;SDS011;2982;42.684;23.356;2024-02-16T01:05:00;21.50;;;11.07;;
5912;SDS011;2982;42.684;23.356;2024-02-16T01:07:25;23.40;;;11.70;;
5912;SDS011;2982;42.684;23.356;2024-02-16T01:09:51;14.80;;;9.63;;
5912;SDS011;2982;42.684;23.356;2024-02-16T01:12:16;22.13;;;10.27;;
5912;SDS011;2982;42.684;23.356;2024-02-16T01:14:41;15.43;;;9.87;;
5912;SDS011;2982;42.684;23.356;2024-02-16T01:17:07;19.03;;;10.60;;
5912;SDS011;2982;42.684;23.356;2024-02-16T01:19:32;26.17;;;12.20;;
5912;SDS011;2982;42.684;23.356;2024-02-16T01:21:57;18.60;;;10.50;;
5912;SDS011;2982;42.684;23.356;2024-02-16T01:24:23;13.03;;;9.33;;
5912;SDS011;2982;42.684;23.356;2024-02-16T01:26:49;18.37;;;10.80;;
5912;SDS011;2982;42.684;23.356;2024-02-16T01:29:14;17.67;;;8.93;;
5912;SDS011;2982;42.684;23.356;2024-02-16T01:31:39;15.60;;;9.93;;
5912;SDS011;2982;42.684;23.356;2024-02-16T01:34:05;15.20;;;9.27;;
5912;SDS011;2982;42.684;23.356;2024-02-16T01:36:30;13.13;;;9.27;;
5912;SDS011;2982;42.684;23.356;2024-02-16T01:38:55;15.43;;;9.33;;
5912;SDS011;2982;42.684;23.356;2024-02-16T01:41:21;18.40;;;9.57;;
5912;SDS011;2982;42.684;23.356;2024-02-16T01:43:46;18.20;;;9.50;;
5912;SDS011;2982;42.684;23.356;2024-02-16T01:46:11;21.27;;;9.77;;
5912;SDS011;2982;42.684;23.356;2024-02-16T01:48:37;15.80;;;9.80;;
5912;SDS011;2982;42.684;23.356;2024-02-16T01:51:02;17.23;;;10.23;;
5912;SDS011;2982;42.684;23.356;2024-02-16T01:53:29;17.73;;;9.53;;
5912;SDS011;2982;42.684;23.356;2024-02-16T01:55:54;17.50;;;10.30;;
5912;SDS011;2982;42.684;23.356;2024-02-16T01:58:20;13.50;;;9.90;;
5912;SDS011;2982;42.684;23.356;2024-02-16T02:00:45;14.20;;;9.40;;
5912;SDS011;2982;42.684;23.356;2024-02-16T02:03:10;14.83;;;9.50;;
5912;SDS011;2982;42.684;23.356;2024-02-16T02:05:45;17.33;;;9.87;;
5912;SDS011;2982;42.684;23.356;2024-02-16T02:08:12;13.40;;;9.70;;
5912;SDS011;2982;42.684;23.356;2024-02-16T02:10:38;20.47;;;10.93;;
5912;SDS011;2982;42.684;23.356;2024-02-16T02:13:03;15.77;;;10.13;;
5912;SDS011;2982;42.684;23.356;2024-02-16T02:15:28;14.90;;;9.47;;
5912;SDS011;2982;42.684;23.356;2024-02-16T02:17:54;10.80;;;9.10;;
5912;SDS011;2982;42.684;23.356;2024-02-16T02:20:19;15.70;;;8.50;;
5912;SDS011;2982;42.684;23.356;2024-02-16T02:22:45;14.67;;;9.33;;
5912;SDS011;2982;42.684;23.356;2024-02-16T02:25:10;13.00;;;9.27;;
5912;SDS011;2982;42.684;23.356;2024-02-16T02:27:36;17.53;;;9.97;;
5912;SDS011;2982;42.684;23.356;2024-02-16T02:30:02;13.30;;;8.83;;
5912;SDS011;2982;42.684;23.356;2024-02-16T02:32:27;16.33;;;9.03;;
5912;SDS011;2982;42.684;23.356;2024-02-16T02:34:53;11.73;;;8.23;;
5912;SDS011;2982;42.684;23.356;2024-02-16T02:37:18;13.30;;;9.20;;
5912;SDS011;2982;42.684;23.356;2024-02-16T02:39:43;13.40;;;8.47;;
5912;SDS011;2982;42.684;23.356;2024-02-16T02:42:09;18.50;;;9.50;;
5912;SDS011;2982;42.684;23.356;2024-02-16T02:44:34;13.67;;;8.60;;
5912;SDS011;2982;42.684;23.356;2024-02-16T02:47:00;10.53;;;8.47;;
5912;SDS011;2982;42.684;23.356;2024-02-16T02:49:25;14.43;;;8.37;;
5912;SDS011;2982;42.684;23.356;2024-02-16T02:51:50;9.43;;;7.70;;
5912;SDS011;2982;42.684;23.356;2024-02-16T02:54:16;15.10;;;8.10;;
5912;SDS011;2982;42.684;23.356;2024-02-16T02:56:41;17.57;;;9.20;;
5912;SDS011;2982;42.684;23.356;2024-02-16T02:59:07;12.40;;;8.30;;
5912;SDS011;2982;42.684;23.356;2024-02-16T03:01:32;14.10;;;9.00;;
5912;SDS011;2982;42.684;23.356;2024-02-16T03:03:58;12.13;;;8.37;;
5912;SDS011;2982;42.684;23.356;2024-02-16T03:06:24;13.20;;;8.80;;
5912;SDS011;2982;42.684;23.356;2024-02-16T03:08:49;16.33;;;9.63;;
5912;SDS011;2982;42.684;23.356;2024-02-16T03:11:14;19.07;;;9.47;;
5912;SDS011;2982;42.684;23.356;2024-02-16T03:13:40;16.57;;;9.20;;
5912;SDS011;2982;42.684;23.356;2024-02-16T03:16:05;15.63;;;9.07;;
5912;SDS011;2982;42.684;23.356;2024-02-16T03:18:31;12.47;;;8.80;;
5912;SDS011;2982;42.684;23.356;2024-02-16T03:20:57;13.30;;;9.23;;
5912;SDS011;2982;42.684;23.356;2024-02-16T03:23:22;13.37;;;8.37;;
5912;SDS011;2982;42.684;23.356;2024-02-16T03:25:48;11.90;;;8.40;;
5912;SDS011;2982;42.684;23.356;2024-02-16T03:28:13;13.53;;;8.27;;
5912;SDS011;2982;42.684;23.356;2024-02-16T03:30:39;15.00;;;8.73;;
5912;SDS011;2982;42.684;23.356;2024-02-16T03:33:05;14.00;;;8.03;;
5912;SDS011;2982;42.684;23.356;2024-02-16T03:35:30;11.87;;;8.50;;
5912;SDS011;2982;42.684;23.356;2024-02-16T03:37:56;12.37;;;7.83;;
5912;SDS011;2982;42.684;23.356;2024-02-16T03:40:22;13.43;;;7.97;;
5912;SDS011;2982;42.684;23.356;2024-02-16T03:42:48;14.27;;;8.53;;
5912;SDS011;2982;42.684;23.356;2024-02-16T03:45:14;15.57;;;8.23;;
5912;SDS011;2982;42.684;23.356;2024-02-16T03:47:42;12.43;;;8.57;;
5912;SDS011;2982;42.684;23.356;2024-02-16T03:50:07;15.00;;;8.50;;
5912;SDS011;2982;42.684;23.356;2024-02-16T03:52:33;17.63;;;9.53;;
5912;SDS011;2982;42.684;23.356;2024-02-16T03:54:59;12.40;;;8.27;;
5912;SDS011;2982;42.684;23.356;2024-02-16T03:57:24;11.77;;;8.53;;
5912;SDS011;2982;42.684;23.356;2024-02-16T03:59:50;16.93;;;8.90;;
5912;SDS011;2982;42.684;23.356;2024-02-16T04:02:15;15.97;;;9.50;;
5912;SDS011;2982;42.684;23.356;2024-02-16T04:04:41;19.03;;;10.77;;
5912;SDS011;2982;42.684;23.356;2024-02-16T04:07:06;15.90;;;9.70;;
5912;SDS011;2982;42.684;23.356;2024-02-16T04:09:32;13.43;;;9.07;;
5912;SDS011;2982;42.684;23.356;2024-02-16T04:12:00;14.37;;;9.70;;
5912;SDS011;2982;42.684;23.356;2024-02-16T04:14:27;17.87;;;9.63;;
5912;SDS011;2982;42.684;23.356;2024-02-16T04:16:52;12.73;;;9.10;;
5912;SDS011;2982;42.684;23.356;2024-02-16T04:19:18;12.60;;;9.47;;
5912;SDS011;2982;42.684;23.356;2024-02-16T04:21:43;12.23;;;9.17;;
5912;SDS011;2982;42.684;23.356;2024-02-16T04:24:09;20.73;;;10.33;;
5912;SDS011;2982;42.684;23.356;2024-02-16T04:26:34;18.33;;;9.93;;
5912;SDS011;2982;42.684;23.356;2024-02-16T04:29:00;14.67;;;9.97;;
5912;SDS011;2982;42.684;23.356;2024-02-16T04:31:25;16.47;;;9.97;;
5912;SDS011;2982;42.684;23.356;2024-02-16T04:33:50;20.43;;;10.57;;
5912;SDS011;2982;42.684;23.356;2024-02-16T04:36:16;14.77;;;9.47;;
5912;SDS011;2982;42.684;23.356;2024-02-16T04:38:41;17.87;;;9.80;;
5912;SDS011;2982;42.684;23.356;2024-02-16T04:41:06;20.37;;;10.00;;
5912;SDS011;2982;42.684;23.356;2024-02-16T04:43:33;14.17;;;9.83;;
5912;SDS011;2982;42.684;23.356;2024-02-16T04:45:58;16.37;;;9.90;;
5912;SDS011;2982;42.684;23.356;2024-02-16T04:48:24;16.83;;;10.20;;
5912;SDS011;2982;42.684;23.356;2024-02-16T04:50:51;20.80;;;10.63;;
5912;SDS011;2982;42.684;23.356;2024-02-16T04:53:16;20.27;;;10.53;;
5912;SDS011;2982;42.684;23.356;2024-02-16T04:55:41;18.83;;;11.07;;
5912;SDS011;2982;42.684;23.356;2024-02-16T04:58:07;20.27;;;11.60;;
5912;SDS011;2982;42.684;23.356;2024-02-16T05:00:32;24.73;;;12.23;;
5912;SDS011;2982;42.684;23.356;2024-02-16T05:02:57;25.10;;;12.27;;
5912;SDS011;2982;42.684;23.356;2024-02-16T05:05:23;20.47;;;12.03;;
5912;SDS011;2982;42.684;23.356;2024-02-16T05:07:48;27.50;;;14.23;;
5912;SDS011;2982;42.684;23.356;2024-02-16T05:10:15;23.60;;;12.50;;
5912;SDS011;2982;42.684;23.356;2024-02-16T05:12:40;26.40;;;14.50;;
5912;SDS011;2982;42.684;23.356;2024-02-16T05:15:05;26.80;;;13.40;;
5912;SDS011;2982;42.684;23.356;2024-02-16T05:17:32;22.30;;;13.63;;
5912;SDS011;2982;42.684;23.356;2024-02-16T05:19:57;28.27;;;15.83;;
5912;SDS011;2982;42.684;23.356;2024-02-16T05:22:22;20.50;;;13.40;;
5912;SDS011;2982;42.684;23.356;2024-02-16T05:24:48;33.23;;;17.37;;
5912;SDS011;2982;42.684;23.356;2024-02-16T05:27:13;29.33;;;16.07;;
5912;SDS011;2982;42.684;23.356;2024-02-16T05:29:39;18.63;;;13.87;;
5912;SDS011;2982;42.684;23.356;2024-02-16T05:32:05;31.60;;;16.80;;
5912;SDS011;2982;42.684;23.356;2024-02-16T05:34:30;22.93;;;14.00;;
5912;SDS011;2982;42.684;23.356;2024-02-16T05:36:56;42.77;;;16.03;;
5912;SDS011;2982;42.684;23.356;2024-02-16T05:39:21;28.57;;;14.73;;
5912;SDS011;2982;42.684;23.356;2024-02-16T05:41:46;25.03;;;14.30;;
5912;SDS011;2982;42.684;23.356;2024-02-16T05:44:12;28.30;;;15.87;;
5912;SDS011;2982;42.684;23.356;2024-02-16T05:46:37;25.23;;;14.23;;
5912;SDS011;2982;42.684;23.356;2024-02-16T05:49:06;27.63;;;14.63;;
5912;SDS011;2982;42.684;23.356;2024-02-16T05:51:35;24.77;;;14.63;;
5912;SDS011;2982;42.684;23.356;2024-02-16T05:54:03;29.03;;;15.13;;
5912;SDS011;2982;42.684;23.356;2024-02-16T05:56:28;29.80;;;14.50;;
5912;SDS011;2982;42.684;23.356;2024-02-16T05:58:54;18.97;;;12.13;;
5912;SDS011;2982;42.684;23.356;2024-02-16T06:01:19;19.17;;;13.10;;
5912;SDS011;2982;42.684;23.356;2024-02-16T06:03:44;21.40;;;12.97;;
5912;SDS011;2982;42.684;23.356;2024-02-16T06:06:10;22.13;;;12.57;;
5912;SDS011;2982;42.684;23.356;2024-02-16T06:08:35;20.50;;;12.90;;
5912;SDS011;2982;42.684;23.356;2024-02-16T06:11:00;31.33;;;14.97;;
5912;SDS011;2982;42.684;23.356;2024-02-16T06:13:26;21.90;;;12.50;;
5912;SDS011;2982;42.684;23.356;2024-02-16T06:15:51;20.83;;;12.40;;
5912;SDS011;2982;42.684;23.356;2024-02-16T06:18:16;18.40;;;13.07;;
5912;SDS011;2982;42.684;23.356;2024-02-16T06:20:43;33.30;;;15.07;;
5912;SDS011;2982;42.684;23.356;2024-02-16T06:23:08;29.07;;;13.37;;
5912;SDS011;2982;42.684;23.356;2024-02-16T06:25:34;30.77;;;14.83;;
5912;SDS011;2982;42.684;23.356;2024-02-16T06:27:59;20.97;;;13.37;;
5912;SDS011;2982;42.684;23.356;2024-02-16T06:30:25;26.70;;;14.30;;
5912;SDS011;2982;42.684;23.356;2024-02-16T06:32:50;27.07;;;13.00;;
5912;SDS011;2982;42.684;23.356;2024-02-16T06:35:16;20.37;;;12.93;;
5912;SDS011;2982;42.684;23.356;2024-02-16T06:37:41;25.73;;;12.60;;
5912;SDS011;2982;42.684;23.356;2024-02-16T06:40:06;20.80;;;12.97;;
5912;SDS011;2982;42.684;23.356;2024-02-16T06:42:32;20.40;;;13.63;;
5912;SDS011;2982;42.684;23.356;2024-02-16T06:44:57;37.30;;;18.73;;
5912;SDS011;2982;42.684;23.356;2024-02-16T06:47:23;38.27;;;20.63;;
5912;SDS011;2982;42.684;23.356;2024-02-16T06:49:48;38.60;;;18.93;;
5912;SDS011;2982;42.684;23.356;2024-02-16T06:52:14;36.07;;;18.47;;
5912;SDS011;2982;42.684;23.356;2024-02-16T06:54:40;36.77;;;18.07;;
5912;SDS011;2982;42.684;23.356;2024-02-16T06:57:05;34.63;;;18.63;;
5912;SDS011;2982;42.684;23.356;2024-02-16T06:59:30;33.40;;;17.97;;
5912;SDS011;2982;42.684;23.356;2024-02-16T07:01:56;29.03;;;17.33;;
5912;SDS011;2982;42.684;23.356;2024-02-16T07:04:21;35.13;;;18.50;;
5912;SDS011;2982;42.684;23.356;2024-02-16T07:06:47;27.87;;;17.47;;
5912;SDS011;2982;42.684;23.356;2024-02-16T07:09:12;33.63;;;17.70;;
5912;SDS011;2982;42.684;23.356;2024-02-16T07:11:37;35.70;;;17.40;;
5912;SDS011;2982;42.684;23.356;2024-02-16T07:14:03;28.50;;;17.17;;
5912;SDS011;2982;42.684;23.356;2024-02-16T07:16:28;24.77;;;16.83;;
5912;SDS011;2982;42.684;23.356;2024-02-16T07:18:53;30.63;;;16.60;;
5912;SDS011;2982;42.684;23.356;2024-02-16T07:21:19;30.27;;;15.37;;
5912;SDS011;2982;42.684;23.356;2024-02-16T07:23:45;31.23;;;15.93;;
5912;SDS011;2982;42.684;23.356;2024-02-16T07:26:10;16.10;;;11.27;;
5912;SDS011;2982;42.684;23.356;2024-02-16T07:28:36;19.70;;;11.60;;
5912;SDS011;2982;42.684;23.356;2024-02-16T07:31:01;15.37;;;9.87;;
5912;SDS011;2982;42.684;23.356;2024-02-16T07:33:27;11.40;;;9.53;;
5912;SDS011;2982;42.684;23.356;2024-02-16T07:35:52;20.07;;;9.63;;
5912;SDS011;2982;42.684;23.356;2024-02-16T07:38:17;17.90;;;8.87;;
5912;SDS011;2982;42.684;23.356;2024-02-16T07:40:43;15.90;;;9.00;;
5912;SDS011;2982;42.684;23.356;2024-02-16T07:43:08;18.47;;;8.90;;
5912;SDS011;2982;42.684;23.356;2024-02-16T07:45:33;13.97;;;8.93;;
5912;SDS011;2982;42.684;23.356;2024-02-16T07:47:59;13.33;;;8.20;;
5912;SDS011;2982;42.684;23.356;2024-02-16T07:50:25;15.47;;;9.50;;
5912;SDS011;2982;42.684;23.356;2024-02-16T07:52:51;22.23;;;9.63;;
5912;SDS011;2982;42.684;23.356;2024-02-16T07:55:16;17.27;;;9.37;;
5912;SDS011;2982;42.684;23.356;2024-02-16T07:57:42;17.13;;;8.97;;
5912;SDS011;2982;42.684;23.356;2024-02-16T08:00:07;12.33;;;8.83;;
5912;SDS011;2982;42.684;23.356;2024-02-16T08:02:33;27.33;;;14.70;;
5912;SDS011;2982;42.684;23.356;2024-02-16T08:04:58;31.20;;;17.33;;
5912;SDS011;2982;42.684;23.356;2024-02-16T08:07:24;31.03;;;18.47;;
5912;SDS011;2982;42.684;23.356;2024-02-16T08:09:49;30.20;;;18.40;;
5912;SDS011;2982;42.684;23.356;2024-02-16T08:12:15;29.13;;;18.07;;
5912;SDS011;2982;42.684;23.356;2024-02-16T08:14:41;27.73;;;16.50;;
5912;SDS011;2982;42.684;23.356;2024-02-16T08:17:07;37.40;;;19.07;;
5912;SDS011;2982;42.684;23.356;2024-02-16T08:19:34;25.10;;;15.87;;
5912;SDS011;2982;42.684;23.356;2024-02-16T08:22:01;36.80;;;19.87;;
5912;SDS011;2982;42.684;23.356;2024-02-16T08:24:27;35.77;;;19.03;;
5912;SDS011;2982;42.684;23.356;2024-02-16T08:26:52;36.47;;;23.13;;
5912;SDS011;2982;42.684;23.356;2024-02-16T08:29:17;43.97;;;21.70;;
5912;SDS011;2982;42.684;23.356;2024-02-16T08:31:43;34.17;;;18.20;;
5912;SDS011;2982;42.684;23.356;2024-02-16T08:34:08;30.33;;;17.07;;
5912;SDS011;2982;42.684;23.356;2024-02-16T08:36:34;29.40;;;16.60;;
5912;SDS011;2982;42.684;23.356;2024-02-16T08:38:59;42.73;;;21.90;;
5912;SDS011;2982;42.684;23.356;2024-02-16T08:41:25;32.43;;;17.43;;
5912;SDS011;2982;42.684;23.356;2024-02-16T08:43:50;37.97;;;21.23;;
5912;SDS011;2982;42.684;23.356;2024-02-16T08:46:15;33.20;;;19.10;;
5912;SDS011;2982;42.684;23.356;2024-02-16T08:48:41;37.40;;;22.10;;
5912;SDS011;2982;42.684;23.356;2024-02-16T08:51:09;44.60;;;21.17;;
5912;SDS011;2982;42.684;23.356;2024-02-16T08:53:35;32.33;;;21.80;;
5912;SDS011;2982;42.684;23.356;2024-02-16T08:56:01;41.33;;;21.67;;
5912;SDS011;2982;42.684;23.356;2024-02-16T08:58:26;43.60;;;24.07;;
5912;SDS011;2982;42.684;23.356;2024-02-16T09:00:52;39.63;;;20.07;;
5912;SDS011;2982;42.684;23.356;2024-02-16T09:03:17;33.37;;;21.00;;
5912;SDS011;2982;42.684;23.356;2024-02-16T09:05:43;31.10;;;15.47;;
5912;SDS011;2982;42.684;23.356;2024-02-16T09:08:08;23.47;;;16.17;;
5912;SDS011;2982;42.684;23.356;2024-02-16T09:10:34;27.48;;;14.63;;
5912;SDS011;2982;42.684;23.356;2024-02-16T09:13:01;22.73;;;12.83;;
5912;SDS011;2982;42.684;23.356;2024-02-16T09:15:29;21.92;;;11.65;;
5912;SDS011;2982;42.684;23.356;2024-02-16T09:17:54;22.58;;;10.85;;
5912;SDS011;2982;42.684;23.356;2024-02-16T09:20:21;13.07;;;9.25;;
5912;SDS011;2982;42.684;23.356;2024-02-16T09:22:46;15.40;;;8.80;;
5912;SDS011;2982;42.684;23.356;2024-02-16T09:25:12;18.42;;;10.30;;
5912;SDS011;2982;42.684;23.356;2024-02-16T09:27:37;12.90;;;8.55;;
5912;SDS011;2982;42.684;23.356;2024-02-16T09:30:03;17.08;;;9.32;;
5912;SDS011;2982;42.684;23.356;2024-02-16T09:32:28;8.80;;;7.63;;
5912;SDS011;2982;42.684;23.356;2024-02-16T09:34:54;9.27;;;7.57;;
5912;SDS011;2982;42.684;23.356;2024-02-16T09:37:19;10.77;;;5.97;;
5912;SDS011;2982;42.684;23.356;2024-02-16T09:39:44;5.10;;;4.70;;
5912;SDS011;2982;42.684;23.356;2024-02-16T09:42:10;5.78;;;5.25;;
5912;SDS011;2982;42.684;23.356;2024-02-16T09:44:35;14.82;;;6.47;;
5912;SDS011;2982;42.684;23.356;2024-02-16T09:47:04;14.20;;;8.13;;
5912;SDS011;2982;42.684;23.356;2024-02-16T09:49:30;7.45;;;4.88;;
5912;SDS011;2982;42.684;23.356;2024-02-16T09:51:55;6.53;;;5.75;;
5912;SDS011;2982;42.684;23.356;2024-02-16T09:54:27;6.30;;;5.60;;
5912;SDS011;2982;42.684;23.356;2024-02-16T09:56:52;7.10;;;5.80;;
5912;SDS011;2982;42.684;23.356;2024-02-16T09:59:17;9.02;;;5.82;;
5912;SDS011;2982;42.684;23.356;2024-02-16T10:01:43;7.05;;;5.63;;
5912;SDS011;2982;42.684;23.356;2024-02-16T10:04:08;6.18;;;5.35;;
5912;SDS011;2982;42.684;23.356;2024-02-16T10:06:45;8.07;;;5.50;;
5912;SDS011;2982;42.684;23.356;2024-02-16T10:09:11;5.65;;;5.15;;
5912;SDS011;2982;42.684;23.356;2024-02-16T10:11:47;6.13;;;4.68;;
5912;SDS011;2982;42.684;23.356;2024-02-16T10:14:12;6.50;;;5.28;;
5912;SDS011;2982;42.684;23.356;2024-02-16T10:16:38;5.30;;;4.80;;
5912;SDS011;2982;42.684;23.356;2024-02-16T10:19:05;7.93;;;4.78;;
5912;SDS011;2982;42.684;23.356;2024-02-16T10:21:32;5.53;;;4.68;;
5912;SDS011;2982;42.684;23.356;2024-02-16T10:24:05;8.80;;;5.57;;
5912;SDS011;2982;42.684;23.356;2024-02-16T10:26:32;7.38;;;5.00;;
5912;SDS011;2982;42.684;23.356;2024-02-16T10:28:57;6.03;;;4.57;;
5912;SDS011;2982;42.684;23.356;2024-02-16T10:31:24;5.50;;;4.90;;
5912;SDS011;2982;42.684;23.356;2024-02-16T10:33:50;6.22;;;4.47;;
5912;SDS011;2982;42.684;23.356;2024-02-16T10:36:15;4.85;;;4.45;;
5912;SDS011;2982;42.684;23.356;2024-02-16T10:38:41;6.85;;;4.68;;
5912;SDS011;2982;42.684;23.356;2024-02-16T10:41:07;5.50;;;5.00;;
5912;SDS011;2982;42.684;23.356;2024-02-16T10:43:34;5.13;;;4.72;;
5912;SDS011;2982;42.684;23.356;2024-02-16T10:45:59;4.13;;;3.67;;
5912;SDS011;2982;42.684;23.356;2024-02-16T10:48:25;4.32;;;3.58;;
5912;SDS011;2982;42.684;23.356;2024-02-16T10:50:51;5.28;;;4.82;;
5912;SDS011;2982;42.684;23.356;2024-02-16T10:53:25;3.85;;;3.58;;
5912;SDS011;2982;42.684;23.356;2024-02-16T10:55:52;5.10;;;2.70;;
5912;SDS011;2982;42.684;23.356;2024-02-16T10:58:18;3.97;;;3.25;;
5912;SDS011;2982;42.684;23.356;2024-02-16T11:00:54;2.55;;;2.35;;
5912;SDS011;2982;42.684;23.356;2024-02-16T11:03:24;3.70;;;2.63;;
5912;SDS011;2982;42.684;23.356;2024-02-16T11:05:50;4.30;;;3.00;;
5912;SDS011;2982;42.684;23.356;2024-02-16T11:08:20;15.60;;;3.55;;
5912;SDS011;2982;42.684;23.356;2024-02-16T11:11:22;3.00;;;2.80;;
5912;SDS011;2982;42.684;23.356;2024-02-16T11:13:47;3.17;;;2.88;;
5912;SDS011;2982;42.684;23.356;2024-02-16T11:16:12;5.63;;;3.25;;
5912;SDS011;2982;42.684;23.356;2024-02-16T11:18:39;4.30;;;3.90;;
5912;SDS011;2982;42.684;23.356;2024-02-16T11:21:05;4.97;;;3.90;;
5912;SDS011;2982;42.684;23.356;2024-02-16T11:23:31;5.57;;;5.05;;
5912;SDS011;2982;42.684;23.356;2024-02-16T11:26:02;3.28;;;3.08;;
5912;SDS011;2982;42.684;23.356;2024-02-16T11:28:30;4.75;;;2.88;;
5912;SDS011;2982;42.684;23.356;2024-02-16T11:30:57;6.05;;;3.92;;
5912;SDS011;2982;42.684;23.356;2024-02-16T11:33:22;5.75;;;3.00;;
5912;SDS011;2982;42.684;23.356;2024-02-16T11:35:54;4.30;;;3.58;;
5912;SDS011;2982;42.684;23.356;2024-02-16T11:38:24;3.95;;;3.58;;
5912;SDS011;2982;42.684;23.356;2024-02-16T11:41:23;3.25;;;3.05;;
5912;SDS011;2982;42.684;23.356;2024-02-16T11:43:41;2.97;;;2.70;;
5912;SDS011;2982;42.684;23.356;2024-02-16T11:46:13;2.42;;;2.28;;
5912;SDS011;2982;42.684;23.356;2024-02-16T11:48:39;4.72;;;2.97;;
5912;SDS011;2982;42.684;23.356;2024-02-16T11:51:05;3.17;;;2.92;;
5912;SDS011;2982;42.684;23.356;2024-02-16T11:53:32;3.00;;;2.80;;
5912;SDS011;2982;42.684;23.356;2024-02-16T11:55:58;5.45;;;2.63;;
5912;SDS011;2982;42.684;23.356;2024-02-16T11:58:24;5.32;;;3.20;;
5912;SDS011;2982;42.684;23.356;2024-02-16T12:00:52;3.67;;;3.28;;
5912;SDS011;2982;42.684;23.356;2024-02-16T12:03:21;5.45;;;3.60;;
5912;SDS011;2982;42.684;23.356;2024-02-16T12:05:52;3.88;;;3.58;;
5912;SDS011;2982;42.684;23.356;2024-02-16T12:08:19;4.32;;;3.95;;
5912;SDS011;2982;42.684;23.356;2024-02-16T12:10:49;3.60;;;3.30;;
5912;SDS011;2982;42.684;23.356;2024-02-16T12:13:18;3.75;;;3.45;;
5912;SDS011;2982;42.684;23.356;2024-02-16T12:15:45;4.10;;;3.58;;
5912;SDS011;2982;42.684;23.356;2024-02-16T12:18:18;4.45;;;3.05;;
5912;SDS011;2982;42.684;23.356;2024-02-16T12:20:44;4.00;;;3.67;;
5912;SDS011;2982;42.684;23.356;2024-02-16T12:23:12;3.53;;;3.30;;
5912;SDS011;2982;42.684;23.356;2024-02-16T12:25:38;3.95;;;3.65;;
5912;SDS011;2982;42.684;23.356;2024-02-16T12:28:03;4.35;;;3.65;;
5912;SDS011;2982;42.684;23.356;2024-02-16T12:30:29;4.97;;;3.83;;
5912;SDS011;2982;42.684;23.356;2024-02-16T12:32:54;3.58;;;3.28;;
5912;SDS011;2982;42.684;23.356;2024-02-16T12:35:19;6.35;;;4.20;;
5912;SDS011;2982;42.684;23.356;2024-02-16T12:37:45;4.60;;;4.20;;
5912;SDS011;2982;42.684;23.356;2024-02-16T12:40:10;4.78;;;4.38;;
5912;SDS011;2982;42.684;23.356;2024-02-16T12:42:36;4.00;;;3.70;;
5912;SDS011;2982;42.684;23.356;2024-02-16T12:45:01;4.07;;;3.30;;
5912;SDS011;2982;42.684;23.356;2024-02-16T12:47:27;5.60;;;4.25;;
5912;SDS011;2982;42.684;23.356;2024-02-16T12:49:52;5.97;;;4.38;;
5912;SDS011;2982;42.684;23.356;2024-02-16T12:52:21;3.90;;;3.40;;
5912;SDS011;2982;42.684;23.356;2024-02-16T12:54:46;4.25;;;3.92;;
5912;SDS011;2982;42.684;23.356;2024-02-16T12:57:12;6.88;;;4.18;;
5912;SDS011;2982;42.684;23.356;2024-02-16T12:59:37;5.60;;;3.20;;
5912;SDS011;2982;42.684;23.356;2024-02-16T13:02:03;5.70;;;4.50;;
5912;SDS011;2982;42.684;23.356;2024-02-16T13:04:28;4.03;;;3.72;;
5912;SDS011;2982;42.684;23.356;2024-02-16T13:06:53;3.97;;;3.60;;
5912;SDS011;2982;42.684;23.356;2024-02-16T13:09:19;4.40;;;4.00;;
5912;SDS011;2982;42.684;23.356;2024-02-16T13:11:45;4.32;;;3.90;;
5912;SDS011;2982;42.684;23.356;2024-02-16T13:14:10;4.53;;;3.90;;
5912;SDS011;2982;42.684;23.356;2024-02-16T13:16:35;3.80;;;3.50;;
5912;SDS011;2982;42.684;23.356;2024-02-16T13:19:01;3.75;;;3.45;;
5912;SDS011;2982;42.684;23.356;2024-02-16T13:21:27;4.15;;;3.80;;
5912;SDS011;2982;42.684;23.356;2024-02-16T13:23:52;8.18;;;4.15;;
5912;SDS011;2982;42.684;23.356;2024-02-16T13:26:17;5.07;;;4.18;;
5912;SDS011;2982;42.684;23.356;2024-02-16T13:28:43;3.90;;;3.13;;
5912;SDS011;2982;42.684;23.356;2024-02-16T13:31:08;4.28;;;3.85;;
5912;SDS011;2982;42.684;23.356;2024-02-16T13:33:34;3.92;;;3.63;;
5912;SDS011;2982;42.684;23.356;2024-02-16T13:35:59;8.75;;;3.10;;
5912;SDS011;2982;42.684;23.356;2024-02-16T13:38:24;4.05;;;3.33;;
5912;SDS011;2982;42.684;23.356;2024-02-16T13:40:50;3.38;;;2.90;;
5912;SDS011;2982;42.684;23.356;2024-02-16T13:43:15;3.70;;;3.30;;
5912;SDS011;2982;42.684;23.356;2024-02-16T13:48:14;2.80;;;2.60;;
5912;SDS011;2982;42.684;23.356;2024-02-16T13:50:39;6.45;;;3.42;;
5912;SDS011;2982;42.684;23.356;2024-02-16T13:53:04;3.05;;;2.72;;
5912;SDS011;2982;42.684;23.356;2024-02-16T13:55:30;7.40;;;3.80;;
5912;SDS011;2982;42.684;23.356;2024-02-16T13:57:55;4.85;;;3.58;;
5912;SDS011;2982;42.684;23.356;2024-02-16T14:00:20;5.13;;;3.20;;
5912;SDS011;2982;42.684;23.356;2024-02-16T14:02:46;4.93;;;2.80;;
5912;SDS011;2982;42.684;23.356;2024-02-16T14:05:11;3.88;;;3.58;;
5912;SDS011;2982;42.684;23.356;2024-02-16T14:07:37;4.55;;;3.15;;
5912;SDS011;2982;42.684;23.356;2024-02-16T14:10:02;4.13;;;3.10;;
5912;SDS011;2982;42.684;23.356;2024-02-16T14:12:27;6.78;;;3.70;;
5912;SDS011;2982;42.684;23.356;2024-02-16T14:14:53;3.10;;;2.80;;
5912;SDS011;2982;42.684;23.356;2024-02-16T14:17:18;3.50;;;3.03;;
5912;SDS011;2982;42.684;23.356;2024-02-16T14:19:43;5.22;;;2.90;;
5912;SDS011;2982;42.684;23.356;2024-02-16T14:22:09;3.08;;;2.78;;
5912;SDS011;2982;42.684;23.356;2024-02-16T14:24:36;3.97;;;2.40;;
5912;SDS011;2982;42.684;23.356;2024-02-16T14:27:01;3.70;;;3.28;;
5912;SDS011;2982;42.684;23.356;2024-02-16T14:29:26;4.00;;;2.92;;
5912;SDS011;2982;42.684;23.356;2024-02-16T14:31:52;3.13;;;2.72;;
5912;SDS011;2982;42.684;23.356;2024-02-16T14:34:17;2.47;;;2.28;;
5912;SDS011;2982;42.684;23.356;2024-02-16T14:36:42;2.80;;;2.60;;
5912;SDS011;2982;42.684;23.356;2024-02-16T14:39:08;3.78;;;3.33;;
5912;SDS011;2982;42.684;23.356;2024-02-16T14:41:33;7.15;;;2.50;;
5912;SDS011;2982;42.684;23.356;2024-02-16T14:43:59;2.53;;;2.33;;